createdAt,value
2014-09-22T00:05:12.988Z,0
2014-09-22T00:14:13.630Z,0
2014-09-22T00:21:14.174Z,0
2014-09-22T00:29:14.768Z,0
2014-09-22T00:36:15.312Z,0
2014-09-22T00:43:15.856Z,0
2014-09-22T00:51:16.467Z,0
2014-09-22T00:59:17.060Z,0
2014-09-22T01:06:17.605Z,0
2014-09-22T01:13:18.150Z,0
2014-09-22T01:21:18.742Z,0
2014-09-22T01:31:22.450Z,0
2014-09-22T01:37:22.944Z,0
2014-09-22T01:47:23.637Z,0
2014-09-22T01:54:24.181Z,0
2014-09-22T02:03:24.840Z,0
2014-09-22T02:11:25.596Z,0
2014-09-22T02:21:26.414Z,0
2014-09-22T02:30:27.070Z,0
2014-09-22T02:38:27.667Z,0
2014-09-22T02:46:28.275Z,0
2014-09-22T02:54:28.869Z,0
2014-09-22T03:03:29.511Z,0
2014-09-22T03:11:30.105Z,0
2014-09-22T03:20:30.763Z,0
2014-09-22T03:28:31.356Z,0
2014-09-22T03:37:31.999Z,0
2014-09-22T03:43:32.495Z,0
2014-09-22T03:52:33.154Z,0
2014-09-22T04:02:33.845Z,0
2014-09-22T04:09:34.390Z,0
2014-09-22T04:18:35.047Z,0
2014-09-22T04:27:35.689Z,0
2014-09-22T04:36:36.332Z,0
2014-09-22T04:45:36.989Z,0
2014-09-22T04:53:37.583Z,0
2014-09-22T05:01:38.177Z,5
2014-09-22T05:08:38.720Z,12
2014-09-22T05:18:39.427Z,23
2014-09-22T05:33:55.456Z,47
2014-09-22T05:41:56.066Z,65
2014-09-22T05:50:56.708Z,89
2014-09-22T05:59:57.351Z,105
2014-09-22T06:08:58.009Z,124
2014-09-22T06:15:58.554Z,113
2014-09-22T06:24:59.196Z,126
2014-09-22T06:32:59.788Z,132
2014-09-22T06:41:00.382Z,144
2014-09-22T06:50:01.041Z,214
2014-09-22T06:58:01.633Z,283
2014-09-22T07:05:02.178Z,263
2014-09-22T07:14:02.821Z,252
2014-09-22T07:22:03.430Z,247
2014-09-22T07:31:04.072Z,190
2014-09-22T07:39:04.666Z,313
2014-09-22T07:47:05.259Z,303
2014-09-22T07:55:05.852Z,295
2014-09-22T08:03:06.447Z,310
2014-09-22T08:11:07.040Z,326
2014-09-22T08:19:07.650Z,337
2014-09-22T08:36:23.777Z,362
2014-09-22T08:46:24.468Z,390
2014-09-22T08:56:25.159Z,514
2014-09-22T09:05:25.801Z,469
2014-09-22T09:14:26.459Z,285
2014-09-22T09:22:27.052Z,345
2014-09-22T09:31:27.696Z,335
2014-09-22T09:40:28.338Z,331
2014-09-22T09:49:28.980Z,251
2014-09-22T09:56:29.525Z,279
2014-09-22T10:03:30.069Z,396
2014-09-22T10:11:30.647Z,261
2014-09-22T10:16:31.094Z,378
2014-09-22T10:25:31.736Z,256
2014-09-22T10:33:32.329Z,205
2014-09-22T10:42:32.988Z,334
2014-09-22T10:51:33.630Z,311
2014-09-22T11:00:34.273Z,304
2014-09-22T19:09:34.685Z,0
2014-09-22T19:17:35.278Z,0
2014-09-22T19:25:35.871Z,0
2014-09-22T19:33:36.465Z,0
2014-09-22T19:40:37.011Z,0
2014-09-22T19:48:37.605Z,0
2014-09-22T19:57:38.260Z,312
2014-09-22T20:07:38.953Z,0
2014-09-22T20:13:39.450Z,0
2014-09-22T20:21:40.112Z,0
2014-09-22T20:30:40.947Z,0
2014-09-22T20:38:41.566Z,0
2014-09-22T20:46:42.166Z,0
2014-09-22T20:55:42.808Z,0
2014-09-22T21:03:43.400Z,0
2014-09-22T21:10:43.930Z,0
2014-09-22T21:19:44.588Z,0
2014-09-22T21:27:45.166Z,0
2014-09-22T21:36:48.808Z,0
2014-09-22T21:44:49.401Z,0
2014-09-22T21:53:50.043Z,0
2014-09-22T22:01:50.638Z,0
2014-09-22T22:10:51.279Z,0
2014-09-22T22:19:51.921Z,0
2014-09-22T22:29:52.613Z,0
2014-09-22T22:37:53.206Z,0
2014-09-22T22:45:53.801Z,0
2014-09-22T22:52:54.344Z,0
2014-09-22T23:00:54.938Z,0
2014-09-22T23:08:55.531Z,0
2014-09-22T23:17:56.158Z,0
2014-09-22T23:26:56.801Z,0
2014-09-22T23:35:57.443Z,0
2014-09-22T23:45:58.150Z,0
2014-09-22T23:52:58.679Z,0
